createdAt,value
2022-10-11T00:02:44.368Z,101042.28
2022-10-11T00:05:59.377Z,101046.13
2022-10-11T00:09:07.350Z,101035.16
2022-10-11T00:12:22.355Z,101041.03
2022-10-11T00:15:25.088Z,101033.25
2022-10-11T00:18:39.403Z,101040.97
2022-10-11T00:21:47.372Z,101034.91
2022-10-11T00:24:56.004Z,101035.91
2022-10-11T00:28:11.471Z,101042.50
2022-10-11T00:31:19.943Z,101034.84
2022-10-11T00:34:28.390Z,101036.41
2022-10-11T00:37:38.715Z,101031.78
2022-10-11T00:40:53.433Z,101030.94
2022-10-11T00:44:11.528Z,101028.03
2022-10-11T00:47:30.454Z,101041.03
2022-10-11T00:50:41.399Z,101028.53
2022-10-11T00:53:51.933Z,101023.41
2022-10-11T00:57:06.406Z,101026.63
2022-10-11T01:00:16.240Z,101027.63
2022-10-11T01:03:34.380Z,101016.97
2022-10-11T01:06:36.144Z,101010.56
2022-10-11T01:09:51.390Z,101019.53
2022-10-11T01:13:18.348Z,101016.97
2022-10-11T01:16:46.433Z,101016.66
2022-10-11T01:20:14.916Z,101024.59
2022-10-11T01:23:53.729Z,101019.87
2022-10-11T01:27:35.411Z,101014.31
2022-10-11T01:30:45.393Z,101007.22
2022-10-11T01:34:18.403Z,101007.38
2022-10-11T01:37:41.608Z,101010.41
2022-10-11T01:41:01.432Z,101009.84
2022-10-11T01:44:11.422Z,101007.47
2022-10-11T01:47:22.086Z,101009.97
2022-10-11T01:50:43.459Z,101002.03
2022-10-11T01:54:09.743Z,100999.66
2022-10-11T01:57:41.411Z,100996.09
2022-10-11T02:01:07.467Z,100992.41
2022-10-11T02:04:32.463Z,100993.25
2022-10-11T02:07:49.330Z,100995.41
2022-10-11T02:11:16.432Z,101000.28
2022-10-11T02:14:24.924Z,100997.75
2022-10-11T02:17:45.420Z,101000.94
2022-10-11T02:21:04.503Z,100995.38
2022-10-11T02:24:28.399Z,100988.56
2022-10-11T02:27:39.892Z,100989.72
2022-10-11T02:30:57.436Z,100993.41
2022-10-11T02:34:16.425Z,100988.84
2022-10-11T02:37:56.476Z,100999.66
2022-10-11T02:41:19.444Z,101004.22
2022-10-11T02:44:41.449Z,100997.66
2022-10-11T02:47:57.439Z,100993.97
2022-10-11T02:51:06.538Z,101003.13
2022-10-11T02:54:15.011Z,100996.22
2022-10-11T02:57:23.462Z,101002.06
2022-10-11T03:00:32.141Z,101007.25
2022-10-11T03:03:40.436Z,101005.25
2022-10-11T03:06:49.003Z,101007.59
2022-10-11T03:10:03.507Z,101011.28
2022-10-11T03:13:17.234Z,101011.75
2022-10-11T03:16:32.434Z,101017.63
2022-10-11T03:19:34.272Z,101014.19
2022-10-11T03:22:49.517Z,101011.66
2022-10-11T03:25:57.460Z,101003.88
2022-10-11T03:29:19.452Z,101004.91
2022-10-11T03:32:27.477Z,101012.06
2022-10-11T03:35:36.062Z,101018.00
2022-10-11T03:38:44.490Z,101015.53
2022-10-11T03:41:53.063Z,101016.59
2022-10-11T03:45:07.476Z,101023.03
2022-10-11T03:48:16.499Z,101022.88
2022-10-11T03:51:25.060Z,101024.97
2022-10-11T03:54:33.597Z,101030.69
2022-10-11T03:57:42.618Z,101027.34
2022-10-11T04:00:50.528Z,101017.97
2022-10-11T04:03:59.111Z,101027.78
2022-10-11T04:07:07.464Z,101024.38
2022-10-11T04:10:22.516Z,101029.06
2022-10-11T04:13:24.223Z,101034.47
2022-10-11T04:16:38.499Z,101037.16
2022-10-11T04:19:40.245Z,101035.03
2022-10-11T04:22:54.498Z,101025.06
2022-10-11T04:26:02.745Z,101034.88
2022-10-11T04:29:17.776Z,101037.72
2022-10-11T04:32:30.547Z,101044.13
2022-10-11T04:35:45.515Z,101039.88
2022-10-11T04:38:47.224Z,101040.72
2022-10-11T04:42:01.542Z,101033.34
2022-10-11T04:45:09.507Z,101036.87
2022-10-11T04:48:24.560Z,101038.41
2022-10-11T04:51:26.324Z,101042.62
2022-10-11T04:54:41.498Z,101024.38
2022-10-11T04:57:43.217Z,101031.66
2022-10-11T05:00:57.519Z,101025.81
2022-10-11T05:03:59.233Z,101026.16
2022-10-11T05:07:13.523Z,101030.59
2022-10-11T05:10:15.320Z,101020.94
2022-10-11T05:13:31.570Z,101027.91
2022-10-11T05:16:40.221Z,101034.81
2022-10-11T05:19:48.569Z,101037.69
2022-10-11T05:23:03.530Z,101038.53
2022-10-11T05:26:11.508Z,101046.53
2022-10-11T05:29:33.511Z,101030.28
2022-10-11T05:32:35.312Z,101040.97
2022-10-11T05:35:49.582Z,101051.25
2022-10-11T05:38:51.422Z,101050.25
2022-10-11T05:42:09.761Z,101060.03
2022-10-11T05:45:11.893Z,101059.09
2022-10-11T05:48:27.600Z,101063.53
2022-10-11T05:51:36.219Z,101067.84
2022-10-11T05:54:44.601Z,101059.78
2022-10-11T05:57:54.430Z,101064.81
2022-10-11T06:01:09.629Z,101064.00
2022-10-11T06:04:17.553Z,101072.94
2022-10-11T06:07:26.400Z,101074.69
2022-10-11T06:10:34.559Z,101072.44
2022-10-11T06:13:49.574Z,101081.22
2022-10-11T06:16:51.271Z,101081.91
2022-10-11T06:20:05.584Z,101097.44
2022-10-11T06:23:13.634Z,101091.75
2022-10-11T06:26:28.603Z,101094.53
2022-10-11T06:29:30.470Z,101093.59
2022-10-11T06:32:45.660Z,101096.66
2022-10-11T06:35:47.587Z,101096.84
2022-10-11T06:39:02.584Z,101095.22
2022-10-11T06:42:11.534Z,101092.25
2022-10-11T06:45:19.675Z,101098.44
2022-10-11T06:48:28.087Z,101093.63
2022-10-11T06:51:42.595Z,101093.63
2022-10-11T06:54:51.145Z,101088.37
2022-10-11T06:57:59.654Z,101090.87
2022-10-11T07:01:17.655Z,101092.09
2022-10-11T07:04:19.536Z,101098.78
2022-10-11T07:07:34.695Z,101111.16
2022-10-11T07:10:43.496Z,101098.19
2022-10-11T07:13:57.665Z,101109.31
2022-10-11T07:17:06.233Z,101108.84
2022-10-11T07:20:15.594Z,101112.53
2022-10-11T07:23:24.863Z,101111.63
2022-10-11T07:26:38.776Z,101108.50
2022-10-11T07:29:53.988Z,101112.91
2022-10-11T07:33:08.624Z,101108.81
2022-10-11T07:36:12.383Z,101116.16
2022-10-11T07:39:26.678Z,101107.78
2022-10-11T07:42:35.484Z,101110.06
2022-10-11T07:45:50.639Z,101117.72
2022-10-11T07:48:59.308Z,101118.59
2022-10-11T07:52:13.655Z,101115.16
2022-10-11T07:55:22.251Z,101117.84
2022-10-11T07:58:30.671Z,101124.09
2022-10-11T08:01:39.372Z,101113.84
2022-10-11T08:04:47.640Z,101121.50
2022-10-11T08:07:56.659Z,101125.13
2022-10-11T08:11:12.709Z,101127.75
2022-10-11T08:14:14.581Z,101119.28
2022-10-11T08:17:29.650Z,101125.75
2022-10-11T08:20:40.189Z,101123.25
2022-10-11T08:23:48.815Z,101130.81
2022-10-11T08:27:10.668Z,101129.06
2022-10-11T08:30:25.709Z,101125.25
2022-10-11T08:33:41.691Z,101124.87
2022-10-11T08:36:43.572Z,101133.56
2022-10-11T08:39:58.807Z,101132.19
2022-10-11T08:43:10.693Z,101130.56
2022-10-11T08:46:32.706Z,101140.88
2022-10-11T08:49:41.700Z,101133.38
2022-10-11T08:53:14.701Z,101130.19
2022-10-11T08:56:23.691Z,101125.72
2022-10-11T08:59:51.731Z,101130.28
2022-10-11T09:03:36.662Z,101130.75
2022-10-11T09:07:08.847Z,101133.22
2022-10-11T09:10:49.807Z,101127.25
2022-10-11T09:14:27.735Z,101126.09
2022-10-11T09:17:59.603Z,101129.31
2022-10-11T09:21:34.683Z,101132.16
2022-10-11T09:25:01.683Z,101127.22
2022-10-11T09:29:00.914Z,101135.19
2022-10-11T09:32:13.855Z,101137.91
2022-10-11T09:35:29.731Z,101137.81
2022-10-11T09:38:47.712Z,101139.59
2022-10-11T09:42:12.811Z,101139.66
2022-10-11T09:45:19.080Z,101134.63
2022-10-11T09:48:47.745Z,101133.88
2022-10-11T09:52:00.276Z,101133.09
2022-10-11T09:55:09.747Z,101129.88
2022-10-11T09:58:38.787Z,101126.16
2022-10-11T10:01:46.786Z,101138.16
2022-10-11T10:05:09.723Z,101135.50
2022-10-11T10:08:27.249Z,101135.13
2022-10-11T10:11:43.713Z,101131.94
2022-10-11T10:15:11.768Z,101129.94
2022-10-11T10:18:49.754Z,101130.12
2022-10-11T10:21:58.462Z,101130.16
2022-10-11T10:25:09.703Z,101122.38
2022-10-11T10:28:33.741Z,101115.16
2022-10-11T10:32:01.926Z,101111.25
2022-10-11T10:35:42.731Z,101114.94
2022-10-11T10:38:58.688Z,101107.34
2022-10-11T10:42:14.168Z,101111.44
2022-10-11T10:45:35.835Z,101112.22
2022-10-11T10:49:48.764Z,101107.50
2022-10-11T10:53:05.719Z,101095.31
2022-10-11T10:56:37.788Z,101105.59
2022-10-11T11:00:11.768Z,101103.50
2022-10-11T11:03:35.815Z,101107.97
2022-10-11T11:06:55.072Z,101099.53
2022-10-11T11:10:11.827Z,101098.00
2022-10-11T11:13:38.448Z,101089.19
2022-10-11T11:16:56.821Z,101095.75
2022-10-11T11:20:27.813Z,101093.16
2022-10-11T11:23:52.672Z,101094.97
2022-10-11T11:27:09.838Z,101089.84
2022-10-11T11:30:50.783Z,101086.00
2022-10-11T11:34:22.743Z,101086.06
2022-10-11T11:37:38.788Z,101076.53
2022-10-11T11:40:59.780Z,101084.72
2022-10-11T11:44:13.784Z,101087.75
2022-10-11T11:47:41.015Z,101088.00
2022-10-11T11:50:57.787Z,101072.09
2022-10-11T11:54:28.303Z,101064.69
2022-10-11T11:58:06.992Z,101071.56
2022-10-11T12:01:31.170Z,101064.16
2022-10-11T12:04:50.842Z,101064.53
2022-10-11T12:08:13.783Z,101076.38
2022-10-11T12:11:35.435Z,101067.31
2022-10-11T12:14:45.497Z,101067.16
2022-10-11T12:18:18.876Z,101051.63
2022-10-11T12:21:42.757Z,101061.78
2022-10-11T12:24:55.702Z,101048.78
2022-10-11T12:28:37.852Z,101054.69
2022-10-11T12:31:50.279Z,101047.41
2022-10-11T12:35:28.848Z,101051.78
2022-10-11T12:38:44.843Z,101053.66
2022-10-11T12:42:06.940Z,101043.87
2022-10-11T12:45:36.800Z,101045.62
2022-10-11T12:48:54.301Z,101043.87
2022-10-11T12:52:28.876Z,101046.00
2022-10-11T12:55:58.831Z,101050.34
2022-10-11T12:59:03.083Z,101049.38
2022-10-11T13:02:42.809Z,101043.00
2022-10-11T13:05:53.932Z,101045.91
2022-10-11T13:09:21.859Z,101037.47
2022-10-11T13:12:24.212Z,101044.16
2022-10-11T13:15:38.863Z,101043.00
2022-10-11T13:19:00.877Z,101044.91
2022-10-11T13:22:20.601Z,101052.84
2022-10-11T13:25:31.827Z,101046.97
2022-10-11T13:28:47.625Z,101040.06
2022-10-11T13:31:55.886Z,101038.16
2022-10-11T13:35:14.616Z,101036.69
2022-10-11T13:38:36.843Z,101035.50
2022-10-11T13:41:51.945Z,101042.25
2022-10-11T13:45:00.881Z,101035.75
2022-10-11T13:48:16.216Z,101038.53
2022-10-11T13:51:36.947Z,101039.19
2022-10-11T13:55:12.880Z,101039.59
2022-10-11T13:58:28.335Z,101045.88
2022-10-11T14:01:47.946Z,101037.66
2022-10-11T14:04:50.631Z,101036.63
2022-10-11T14:08:10.919Z,101035.31
2022-10-11T14:11:20.874Z,101035.00
2022-10-11T14:14:41.041Z,101047.53
2022-10-11T14:17:55.940Z,101046.31
2022-10-11T14:20:57.785Z,101048.19
2022-10-11T14:24:14.948Z,101046.91
2022-10-11T14:27:38.032Z,101043.13
2022-10-11T14:30:52.886Z,101051.47
2022-10-11T14:34:01.481Z,101052.50
2022-10-11T14:37:10.864Z,101051.00
2022-10-11T14:40:23.561Z,101048.62
2022-10-11T14:43:31.875Z,101042.88
2022-10-11T14:46:40.662Z,101047.88
2022-10-11T14:49:50.949Z,101044.00
2022-10-11T14:53:00.107Z,101055.50
2022-10-11T14:56:08.169Z,101057.97
2022-10-11T14:59:25.861Z,101052.91
2022-10-11T15:02:40.936Z,101048.88
2022-10-11T15:05:42.740Z,101052.00
2022-10-11T15:08:57.988Z,101050.53
2022-10-11T15:12:05.887Z,101051.78
2022-10-11T15:15:21.912Z,101054.63
2022-10-11T15:18:23.702Z,101053.31
2022-10-11T15:21:39.917Z,101060.63
2022-10-11T15:24:51.654Z,101060.09
2022-10-11T15:28:00.954Z,101064.25
2022-10-11T15:31:17.148Z,101050.75
2022-10-11T15:34:24.950Z,101063.06
2022-10-11T15:37:37.210Z,101072.28
2022-10-11T15:40:46.002Z,101069.75
2022-10-11T15:43:54.492Z,101071.25
2022-10-11T15:47:02.919Z,101068.31
2022-10-11T15:50:23.899Z,101071.91
2022-10-11T15:53:33.919Z,101078.38
2022-10-11T15:56:49.001Z,101082.78
2022-10-11T15:59:57.701Z,101077.16
2022-10-11T16:03:05.925Z,101080.91
2022-10-11T16:06:14.707Z,101079.22
2022-10-11T16:09:28.933Z,101085.91
2022-10-11T16:12:37.482Z,101087.13
2022-10-11T16:15:47.920Z,101093.56
2022-10-11T16:18:56.447Z,101093.91
2022-10-11T16:22:05.162Z,101100.12
2022-10-11T16:25:20.110Z,101109.03
2022-10-11T16:28:29.257Z,101099.94
2022-10-11T16:31:43.961Z,101113.84
2022-10-11T16:34:51.961Z,101120.63
2022-10-11T16:38:07.953Z,101117.63
2022-10-11T16:41:09.727Z,101116.31
2022-10-11T16:44:26.980Z,101122.31
2022-10-11T16:47:35.060Z,101130.31
2022-10-11T16:50:43.572Z,101128.22
2022-10-11T16:53:51.973Z,101129.56
2022-10-11T16:57:10.989Z,101133.13
2022-10-11T17:00:23.089Z,101144.22
2022-10-11T17:03:31.536Z,101139.31
2022-10-11T17:06:39.950Z,101135.75
2022-10-11T17:09:49.621Z,101132.37
2022-10-11T17:13:01.981Z,101140.53
2022-10-11T17:16:24.958Z,101141.00
2022-10-11T17:19:44.829Z,101144.28
2022-10-11T17:22:53.949Z,101151.13
2022-10-11T17:26:12.166Z,101141.28
2022-10-11T17:29:27.275Z,101145.22
2022-10-11T17:32:36.030Z,101156.94
2022-10-11T17:35:44.568Z,101159.56
2022-10-11T17:38:52.988Z,101162.84
2022-10-11T17:42:08.010Z,101166.50
2022-10-11T17:45:10.069Z,101170.97
2022-10-11T17:48:24.990Z,101176.31
2022-10-11T17:51:27.187Z,101173.94
2022-10-11T17:54:42.188Z,101174.94
2022-10-11T17:57:43.952Z,101173.25
2022-10-11T18:00:59.113Z,101169.03
2022-10-11T18:04:03.745Z,101166.19
2022-10-11T18:07:18.014Z,101175.75
2022-10-11T18:10:20.344Z,101174.59
2022-10-11T18:13:34.998Z,101165.97
2022-10-11T18:16:43.676Z,101171.09
2022-10-11T18:19:57.983Z,101171.00
2022-10-11T18:23:06.643Z,101179.87
2022-10-11T18:26:29.390Z,101173.28
2022-10-11T18:29:32.167Z,101178.03
2022-10-11T18:32:46.999Z,101172.13
2022-10-11T18:35:55.130Z,101170.81
2022-10-11T18:39:07.345Z,101180.13
2022-10-11T18:42:16.018Z,101181.91
2022-10-11T18:45:24.556Z,101174.81
2022-10-11T18:48:33.014Z,101171.78
2022-10-11T18:51:49.035Z,101174.19
2022-10-11T18:54:50.725Z,101164.88
2022-10-11T18:58:05.044Z,101178.47
2022-10-11T19:01:16.232Z,101137.59
2022-10-11T19:04:31.020Z,101170.47
2022-10-11T19:07:39.536Z,101169.25
2022-10-11T19:10:54.040Z,101171.97
2022-10-11T19:14:14.068Z,101176.06
2022-10-11T19:17:22.871Z,101174.91
2022-10-11T19:20:32.063Z,101174.75
2022-10-11T19:23:43.967Z,101173.38
2022-10-11T19:26:53.063Z,101177.97
2022-10-11T19:30:08.668Z,101179.00
2022-10-11T19:33:23.040Z,101187.47
2022-10-11T19:36:36.455Z,101187.00
2022-10-11T19:39:45.714Z,101185.84
2022-10-11T19:42:54.044Z,101181.78
2022-10-11T19:46:11.063Z,101185.34
2022-10-11T19:49:28.052Z,101187.03
2022-10-11T19:52:45.015Z,101187.88
2022-10-11T19:55:53.059Z,101185.84
2022-10-11T19:59:09.056Z,101183.63
2022-10-11T20:02:24.103Z,101193.63
2022-10-11T20:05:32.058Z,101190.75
2022-10-11T20:08:52.766Z,101190.38
2022-10-11T20:12:13.675Z,101200.91
2022-10-11T20:15:28.051Z,101202.78
2022-10-11T20:18:37.062Z,101207.50
2022-10-11T20:21:45.993Z,101204.50
2022-10-11T20:24:54.103Z,101195.72
2022-10-11T20:28:16.188Z,101203.37
2022-10-11T20:31:35.054Z,101201.84
2022-10-11T20:34:50.081Z,101201.88
2022-10-11T20:37:58.620Z,101203.41
2022-10-11T20:41:15.127Z,101203.75
2022-10-11T20:44:23.711Z,101209.38
2022-10-11T20:47:32.487Z,101209.87
2022-10-11T20:50:44.301Z,101207.88
2022-10-11T20:53:53.123Z,101200.94
2022-10-11T20:57:01.708Z,101210.75
2022-10-11T21:00:17.120Z,101208.03
2022-10-11T21:03:26.154Z,101221.91
2022-10-11T21:06:41.091Z,101215.31
2022-10-11T21:09:49.157Z,101216.16
2022-10-11T21:12:58.111Z,101220.91
2022-10-11T21:16:20.091Z,101211.59
2022-10-11T21:19:28.712Z,101211.06
2022-10-11T21:22:38.101Z,101210.06
2022-10-11T21:25:53.119Z,101207.69
2022-10-11T21:29:08.128Z,101215.50
2022-10-11T21:32:16.115Z,101212.97
2022-10-11T21:35:25.418Z,101214.47
2022-10-11T21:38:34.116Z,101218.22
2022-10-11T21:41:49.112Z,101216.16
2022-10-11T21:44:57.144Z,101224.81
2022-10-11T21:48:12.114Z,101223.59
2022-10-11T21:51:20.251Z,101215.63
2022-10-11T21:54:35.131Z,101214.41
2022-10-11T21:57:36.943Z,101211.53
2022-10-11T22:00:53.160Z,101210.16
2022-10-11T22:04:08.144Z,101218.97
2022-10-11T22:07:16.162Z,101219.13
2022-10-11T22:10:24.639Z,101218.62
2022-10-11T22:13:35.208Z,101211.88
2022-10-11T22:16:50.132Z,101214.03
2022-10-11T22:19:51.928Z,101214.34
2022-10-11T22:23:06.140Z,101208.59
2022-10-11T22:26:11.137Z,101219.41
2022-10-11T22:29:27.678Z,101219.03
2022-10-11T22:32:32.260Z,101218.03
2022-10-11T22:35:47.136Z,101217.16
2022-10-11T22:38:48.863Z,101225.25
2022-10-11T22:42:03.150Z,101226.78
2022-10-11T22:45:05.454Z,101224.03
2022-10-11T22:48:20.142Z,101218.94
2022-10-11T22:51:28.159Z,101219.63
2022-10-11T22:54:43.235Z,101217.72
2022-10-11T22:57:51.170Z,101215.34
2022-10-11T23:01:16.185Z,101189.97
2022-10-11T23:04:24.736Z,101218.34
2022-10-11T23:07:39.435Z,101216.78
2022-10-11T23:10:41.302Z,101217.94
2022-10-11T23:13:56.150Z,101228.25
2022-10-11T23:16:57.968Z,101233.66
2022-10-11T23:20:15.163Z,101229.41
2022-10-11T23:23:23.274Z,101233.44
2022-10-11T23:26:31.663Z,101239.69
2022-10-11T23:29:46.204Z,101232.31
2022-10-11T23:32:54.827Z,101241.53
2022-10-11T23:36:03.192Z,101238.81
2022-10-11T23:39:11.712Z,101236.97
2022-10-11T23:42:27.231Z,101250.31
2022-10-11T23:45:35.676Z,101252.03
2022-10-11T23:48:44.228Z,101248.13
2022-10-11T23:51:59.223Z,101254.53
2022-10-11T23:55:07.204Z,101250.81
2022-10-11T23:58:22.179Z,101258.78
